sensor_id;sensor_type;location;lat;lon;timestamp;P1;durP1;ratioP1;P2;durP2;ratioP2
4290;SDS011;2159;50.906;7.152;2023-02-28T00:02:17;2.70;;;2.50;;
4290;SDS011;2159;50.906;7.152;2023-02-28T00:04:45;3.57;;;2.80;;
4290;SDS011;2159;50.906;7.152;2023-02-28T00:07:27;2.80;;;2.60;;
4290;SDS011;2159;50.906;7.152;2023-02-28T00:09:54;2.70;;;2.50;;
4290;SDS011;2159;50.906;7.152;2023-02-28T00:12:23;2.60;;;2.40;;
4290;SDS011;2159;50.906;7.152;2023-02-28T00:14:51;2.47;;;2.30;;
4290;SDS011;2159;50.906;7.152;2023-02-28T00:17:19;2.23;;;2.13;;
4290;SDS011;2159;50.906;7.152;2023-02-28T00:19:47;3.03;;;2.30;;
4290;SDS011;2159;50.906;7.152;2023-02-28T00:22:15;2.47;;;2.30;;
4290;SDS011;2159;50.906;7.152;2023-02-28T00:24:43;2.87;;;2.63;;
4290;SDS011;2159;50.906;7.152;2023-02-28T00:27:11;2.50;;;2.30;;
4290;SDS011;2159;50.906;7.152;2023-02-28T00:29:40;2.77;;;2.03;;
4290;SDS011;2159;50.906;7.152;2023-02-28T00:32:07;3.47;;;2.47;;
4290;SDS011;2159;50.906;7.152;2023-02-28T00:34:35;2.30;;;2.20;;
4290;SDS011;2159;50.906;7.152;2023-02-28T00:37:04;2.47;;;2.27;;
4290;SDS011;2159;50.906;7.152;2023-02-28T00:39:33;2.90;;;2.00;;
4290;SDS011;2159;50.906;7.152;2023-02-28T00:42:01;3.03;;;2.40;;
4290;SDS011;2159;50.906;7.152;2023-02-28T00:44:29;2.70;;;2.30;;
4290;SDS011;2159;50.906;7.152;2023-02-28T00:46:58;3.27;;;2.30;;
4290;SDS011;2159;50.906;7.152;2023-02-28T00:49:26;2.90;;;2.53;;
4290;SDS011;2159;50.906;7.152;2023-02-28T00:51:54;4.30;;;2.60;;
4290;SDS011;2159;50.906;7.152;2023-02-28T00:54:22;2.93;;;2.30;;
4290;SDS011;2159;50.906;7.152;2023-02-28T00:56:49;2.87;;;2.67;;
4290;SDS011;2159;50.906;7.152;2023-02-28T00:59:17;2.67;;;2.47;;
4290;SDS011;2159;50.906;7.152;2023-02-28T01:01:45;2.70;;;2.30;;
4290;SDS011;2159;50.906;7.152;2023-02-28T01:04:14;5.33;;;2.63;;
4290;SDS011;2159;50.906;7.152;2023-02-28T01:06:42;2.40;;;2.20;;
4290;SDS011;2159;50.906;7.152;2023-02-28T01:09:10;2.70;;;2.20;;
4290;SDS011;2159;50.906;7.152;2023-02-28T01:11:38;3.80;;;2.57;;
4290;SDS011;2159;50.906;7.152;2023-02-28T01:14:06;2.43;;;2.33;;
4290;SDS011;2159;50.906;7.152;2023-02-28T01:16:34;3.33;;;2.77;;
4290;SDS011;2159;50.906;7.152;2023-02-28T01:19:01;3.53;;;2.70;;
4290;SDS011;2159;50.906;7.152;2023-02-28T01:21:30;4.10;;;2.80;;
4290;SDS011;2159;50.906;7.152;2023-02-28T01:23:58;2.63;;;2.43;;
4290;SDS011;2159;50.906;7.152;2023-02-28T01:26:25;2.27;;;2.17;;
4290;SDS011;2159;50.906;7.152;2023-02-28T01:28:53;2.50;;;2.40;;
4290;SDS011;2159;50.906;7.152;2023-02-28T01:31:21;2.80;;;2.40;;
4290;SDS011;2159;50.906;7.152;2023-02-28T01:33:49;2.50;;;2.40;;
4290;SDS011;2159;50.906;7.152;2023-02-28T01:36:17;3.10;;;2.53;;
4290;SDS011;2159;50.906;7.152;2023-02-28T01:38:46;2.00;;;1.90;;
4290;SDS011;2159;50.906;7.152;2023-02-28T01:41:15;2.87;;;2.30;;
4290;SDS011;2159;50.906;7.152;2023-02-28T01:43:53;2.50;;;2.20;;
4290;SDS011;2159;50.906;7.152;2023-02-28T01:46:21;2.63;;;2.40;;
4290;SDS011;2159;50.906;7.152;2023-02-28T01:48:50;2.50;;;2.30;;
4290;SDS011;2159;50.906;7.152;2023-02-28T01:51:19;2.77;;;2.10;;
4290;SDS011;2159;50.906;7.152;2023-02-28T01:53:51;1.93;;;1.80;;
4290;SDS011;2159;50.906;7.152;2023-02-28T01:56:20;2.10;;;1.93;;
4290;SDS011;2159;50.906;7.152;2023-02-28T01:58:49;2.40;;;2.20;;
4290;SDS011;2159;50.906;7.152;2023-02-28T02:01:18;2.63;;;2.40;;
4290;SDS011;2159;50.906;7.152;2023-02-28T02:03:48;4.43;;;2.17;;
4290;SDS011;2159;50.906;7.152;2023-02-28T02:06:21;2.53;;;2.33;;
4290;SDS011;2159;50.906;7.152;2023-02-28T02:08:51;2.53;;;2.33;;
4290;SDS011;2159;50.906;7.152;2023-02-28T02:11:19;2.30;;;2.20;;
4290;SDS011;2159;50.906;7.152;2023-02-28T02:13:54;2.47;;;2.27;;
4290;SDS011;2159;50.906;7.152;2023-02-28T02:16:33;3.20;;;2.37;;
4290;SDS011;2159;50.906;7.152;2023-02-28T02:19:04;3.93;;;1.90;;
4290;SDS011;2159;50.906;7.152;2023-02-28T02:24:26;2.30;;;2.20;;
4290;SDS011;2159;50.906;7.152;2023-02-28T02:27:02;2.80;;;2.30;;
4290;SDS011;2159;50.906;7.152;2023-02-28T02:29:37;3.03;;;2.53;;
4290;SDS011;2159;50.906;7.152;2023-02-28T02:32:14;2.20;;;2.07;;
4290;SDS011;2159;50.906;7.152;2023-02-28T02:34:49;2.43;;;2.23;;
4290;SDS011;2159;50.906;7.152;2023-02-28T02:37:25;2.40;;;2.20;;
4290;SDS011;2159;50.906;7.152;2023-02-28T02:39:59;2.70;;;2.50;;
4290;SDS011;2159;50.906;7.152;2023-02-28T02:42:28;2.07;;;1.97;;
4290;SDS011;2159;50.906;7.152;2023-02-28T02:44:58;2.30;;;2.20;;
4290;SDS011;2159;50.906;7.152;2023-02-28T02:47:27;3.00;;;2.07;;
4290;SDS011;2159;50.906;7.152;2023-02-28T02:49:58;2.43;;;2.23;;
4290;SDS011;2159;50.906;7.152;2023-02-28T02:52:28;2.60;;;2.40;;
4290;SDS011;2159;50.906;7.152;2023-02-28T02:54:57;2.20;;;2.10;;
4290;SDS011;2159;50.906;7.152;2023-02-28T02:57:25;2.53;;;2.30;;
4290;SDS011;2159;50.906;7.152;2023-02-28T02:59:56;2.30;;;2.20;;
4290;SDS011;2159;50.906;7.152;2023-02-28T03:02:24;2.70;;;2.50;;
4290;SDS011;2159;50.906;7.152;2023-02-28T03:04:54;2.20;;;2.10;;
4290;SDS011;2159;50.906;7.152;2023-02-28T03:07:28;2.30;;;2.07;;
4290;SDS011;2159;50.906;7.152;2023-02-28T03:09:56;2.20;;;2.10;;
4290;SDS011;2159;50.906;7.152;2023-02-28T03:12:31;2.50;;;2.40;;
4290;SDS011;2159;50.906;7.152;2023-02-28T03:15:03;2.40;;;2.20;;
4290;SDS011;2159;50.906;7.152;2023-02-28T03:20:17;2.17;;;2.03;;
4290;SDS011;2159;50.906;7.152;2023-02-28T03:22:52;3.17;;;2.30;;
4290;SDS011;2159;50.906;7.152;2023-02-28T03:25:29;3.27;;;2.40;;
4290;SDS011;2159;50.906;7.152;2023-02-28T03:28:04;2.40;;;2.20;;
4290;SDS011;2159;50.906;7.152;2023-02-28T03:30:34;1.83;;;1.83;;
4290;SDS011;2159;50.906;7.152;2023-02-28T03:33:03;3.57;;;2.00;;
4290;SDS011;2159;50.906;7.152;2023-02-28T03:35:32;2.00;;;1.90;;
4290;SDS011;2159;50.906;7.152;2023-02-28T03:38:03;2.40;;;2.23;;
4290;SDS011;2159;50.906;7.152;2023-02-28T03:40:33;2.13;;;2.00;;
4290;SDS011;2159;50.906;7.152;2023-02-28T03:43:03;2.13;;;1.97;;
4290;SDS011;2159;50.906;7.152;2023-02-28T03:45:32;2.40;;;2.20;;
4290;SDS011;2159;50.906;7.152;2023-02-28T03:48:02;2.37;;;2.27;;
4290;SDS011;2159;50.906;7.152;2023-02-28T03:50:32;2.40;;;2.30;;
4290;SDS011;2159;50.906;7.152;2023-02-28T03:53:08;2.93;;;2.13;;
4290;SDS011;2159;50.906;7.152;2023-02-28T03:55:39;1.90;;;1.80;;
4290;SDS011;2159;50.906;7.152;2023-02-28T03:58:09;2.30;;;2.20;;
4290;SDS011;2159;50.906;7.152;2023-02-28T04:00:39;2.40;;;2.30;;
4290;SDS011;2159;50.906;7.152;2023-02-28T04:03:08;4.83;;;1.97;;
4290;SDS011;2159;50.906;7.152;2023-02-28T04:05:43;1.97;;;1.87;;
4290;SDS011;2159;50.906;7.152;2023-02-28T04:08:13;2.30;;;2.20;;
4290;SDS011;2159;50.906;7.152;2023-02-28T04:10:41;2.70;;;2.40;;
4290;SDS011;2159;50.906;7.152;2023-02-28T04:13:09;2.20;;;2.10;;
4290;SDS011;2159;50.906;7.152;2023-02-28T04:15:37;2.30;;;2.20;;
4290;SDS011;2159;50.906;7.152;2023-02-28T04:18:04;2.37;;;2.17;;
4290;SDS011;2159;50.906;7.152;2023-02-28T04:20:32;4.03;;;2.20;;
4290;SDS011;2159;50.906;7.152;2023-02-28T04:23:00;4.20;;;2.30;;
4290;SDS011;2159;50.906;7.152;2023-02-28T04:25:29;2.30;;;2.17;;
4290;SDS011;2159;50.906;7.152;2023-02-28T04:27:56;2.07;;;1.93;;
4290;SDS011;2159;50.906;7.152;2023-02-28T04:30:24;1.93;;;1.83;;
4290;SDS011;2159;50.906;7.152;2023-02-28T04:32:51;2.43;;;2.13;;
4290;SDS011;2159;50.906;7.152;2023-02-28T04:35:18;1.87;;;1.77;;
4290;SDS011;2159;50.906;7.152;2023-02-28T04:37:46;2.10;;;2.00;;
4290;SDS011;2159;50.906;7.152;2023-02-28T04:40:13;1.90;;;1.80;;
4290;SDS011;2159;50.906;7.152;2023-02-28T04:42:42;1.93;;;1.87;;
4290;SDS011;2159;50.906;7.152;2023-02-28T04:45:10;2.40;;;1.90;;
4290;SDS011;2159;50.906;7.152;2023-02-28T04:47:37;7.53;;;2.27;;
4290;SDS011;2159;50.906;7.152;2023-02-28T04:50:05;2.00;;;1.90;;
4290;SDS011;2159;50.906;7.152;2023-02-28T04:52:33;1.90;;;1.77;;
4290;SDS011;2159;50.906;7.152;2023-02-28T04:55:00;2.07;;;1.90;;
4290;SDS011;2159;50.906;7.152;2023-02-28T04:57:27;2.10;;;2.00;;
4290;SDS011;2159;50.906;7.152;2023-02-28T04:59:57;2.03;;;1.93;;
4290;SDS011;2159;50.906;7.152;2023-02-28T05:02:25;2.53;;;2.33;;
4290;SDS011;2159;50.906;7.152;2023-02-28T05:04:52;2.10;;;1.97;;
4290;SDS011;2159;50.906;7.152;2023-02-28T05:07:19;2.20;;;2.10;;
4290;SDS011;2159;50.906;7.152;2023-02-28T05:09:47;1.73;;;1.63;;
4290;SDS011;2159;50.906;7.152;2023-02-28T05:12:14;2.10;;;1.90;;
4290;SDS011;2159;50.906;7.152;2023-02-28T05:14:42;2.00;;;1.90;;
4290;SDS011;2159;50.906;7.152;2023-02-28T05:17:11;2.10;;;2.00;;
4290;SDS011;2159;50.906;7.152;2023-02-28T05:19:39;2.40;;;2.20;;
4290;SDS011;2159;50.906;7.152;2023-02-28T05:22:11;2.10;;;2.00;;
4290;SDS011;2159;50.906;7.152;2023-02-28T05:24:39;2.10;;;2.00;;
4290;SDS011;2159;50.906;7.152;2023-02-28T05:27:07;2.23;;;2.13;;
4290;SDS011;2159;50.906;7.152;2023-02-28T05:29:35;2.40;;;2.20;;
4290;SDS011;2159;50.906;7.152;2023-02-28T05:32:08;2.60;;;2.40;;
4290;SDS011;2159;50.906;7.152;2023-02-28T05:34:37;2.40;;;2.20;;
4290;SDS011;2159;50.906;7.152;2023-02-28T05:37:05;2.73;;;2.50;;
4290;SDS011;2159;50.906;7.152;2023-02-28T05:39:33;2.90;;;2.63;;
4290;SDS011;2159;50.906;7.152;2023-02-28T05:42:00;2.40;;;2.30;;
4290;SDS011;2159;50.906;7.152;2023-02-28T05:44:28;3.63;;;2.47;;
4290;SDS011;2159;50.906;7.152;2023-02-28T05:46:55;2.50;;;2.40;;
4290;SDS011;2159;50.906;7.152;2023-02-28T05:49:23;2.80;;;2.53;;
4290;SDS011;2159;50.906;7.152;2023-02-28T05:51:52;2.70;;;2.50;;
4290;SDS011;2159;50.906;7.152;2023-02-28T05:54:19;2.80;;;2.50;;
4290;SDS011;2159;50.906;7.152;2023-02-28T05:56:47;2.70;;;2.50;;
4290;SDS011;2159;50.906;7.152;2023-02-28T05:59:14;2.30;;;2.20;;
4290;SDS011;2159;50.906;7.152;2023-02-28T06:01:42;2.60;;;2.40;;
4290;SDS011;2159;50.906;7.152;2023-02-28T06:04:14;2.77;;;2.37;;
4290;SDS011;2159;50.906;7.152;2023-02-28T06:06:58;2.60;;;2.20;;
4290;SDS011;2159;50.906;7.152;2023-02-28T06:09:25;2.20;;;2.10;;
4290;SDS011;2159;50.906;7.152;2023-02-28T06:11:53;5.67;;;2.30;;
4290;SDS011;2159;50.906;7.152;2023-02-28T06:14:20;2.50;;;2.40;;
4290;SDS011;2159;50.906;7.152;2023-02-28T06:16:48;2.40;;;2.20;;
4290;SDS011;2159;50.906;7.152;2023-02-28T06:19:16;2.70;;;2.30;;
4290;SDS011;2159;50.906;7.152;2023-02-28T06:21:43;3.03;;;2.27;;
4290;SDS011;2159;50.906;7.152;2023-02-28T06:24:12;3.13;;;2.33;;
4290;SDS011;2159;50.906;7.152;2023-02-28T06:26:40;3.13;;;2.10;;
4290;SDS011;2159;50.906;7.152;2023-02-28T06:29:07;2.90;;;2.70;;
4290;SDS011;2159;50.906;7.152;2023-02-28T06:31:35;3.70;;;2.77;;
4290;SDS011;2159;50.906;7.152;2023-02-28T06:34:02;2.70;;;2.50;;
4290;SDS011;2159;50.906;7.152;2023-02-28T06:36:30;2.30;;;2.20;;
4290;SDS011;2159;50.906;7.152;2023-02-28T06:38:57;2.70;;;2.50;;
4290;SDS011;2159;50.906;7.152;2023-02-28T06:41:26;2.33;;;2.23;;
4290;SDS011;2159;50.906;7.152;2023-02-28T06:43:54;2.67;;;2.47;;
4290;SDS011;2159;50.906;7.152;2023-02-28T06:46:22;2.80;;;2.60;;
4290;SDS011;2159;50.906;7.152;2023-02-28T06:48:49;2.90;;;2.70;;
4290;SDS011;2159;50.906;7.152;2023-02-28T06:51:18;2.87;;;2.33;;
4290;SDS011;2159;50.906;7.152;2023-02-28T06:53:46;3.27;;;2.47;;
4290;SDS011;2159;50.906;7.152;2023-02-28T06:56:14;2.80;;;2.60;;
4290;SDS011;2159;50.906;7.152;2023-02-28T06:58:45;2.80;;;2.60;;
4290;SDS011;2159;50.906;7.152;2023-02-28T07:01:13;2.60;;;2.50;;
4290;SDS011;2159;50.906;7.152;2023-02-28T07:03:40;2.30;;;2.20;;
4290;SDS011;2159;50.906;7.152;2023-02-28T07:06:08;2.90;;;2.70;;
4290;SDS011;2159;50.906;7.152;2023-02-28T07:08:35;3.17;;;2.50;;
4290;SDS011;2159;50.906;7.152;2023-02-28T07:11:03;2.90;;;2.70;;
4290;SDS011;2159;50.906;7.152;2023-02-28T07:13:31;2.90;;;2.60;;
4290;SDS011;2159;50.906;7.152;2023-02-28T07:16:00;2.90;;;2.77;;
4290;SDS011;2159;50.906;7.152;2023-02-28T07:18:28;2.90;;;2.70;;
4290;SDS011;2159;50.906;7.152;2023-02-28T07:20:56;2.30;;;2.20;;
4290;SDS011;2159;50.906;7.152;2023-02-28T07:23:23;2.80;;;2.60;;
4290;SDS011;2159;50.906;7.152;2023-02-28T07:25:51;2.90;;;2.70;;
4290;SDS011;2159;50.906;7.152;2023-02-28T07:28:19;2.77;;;2.57;;
4290;SDS011;2159;50.906;7.152;2023-02-28T07:30:46;2.70;;;2.60;;
4290;SDS011;2159;50.906;7.152;2023-02-28T07:33:16;3.10;;;2.80;;
4290;SDS011;2159;50.906;7.152;2023-02-28T07:35:43;2.60;;;2.40;;
4290;SDS011;2159;50.906;7.152;2023-02-28T07:38:11;2.70;;;2.60;;
4290;SDS011;2159;50.906;7.152;2023-02-28T07:40:39;2.80;;;2.60;;
4290;SDS011;2159;50.906;7.152;2023-02-28T07:43:07;2.50;;;2.40;;
4290;SDS011;2159;50.906;7.152;2023-02-28T07:45:34;2.57;;;2.43;;
4290;SDS011;2159;50.906;7.152;2023-02-28T07:48:02;2.27;;;2.17;;
4290;SDS011;2159;50.906;7.152;2023-02-28T07:50:31;2.30;;;2.20;;
4290;SDS011;2159;50.906;7.152;2023-02-28T07:52:58;2.40;;;2.20;;
4290;SDS011;2159;50.906;7.152;2023-02-28T07:55:26;2.47;;;2.27;;
4290;SDS011;2159;50.906;7.152;2023-02-28T07:57:53;2.50;;;2.30;;
4290;SDS011;2159;50.906;7.152;2023-02-28T08:00:21;3.37;;;2.37;;
4290;SDS011;2159;50.906;7.152;2023-02-28T08:02:49;3.77;;;2.80;;
4290;SDS011;2159;50.906;7.152;2023-02-28T08:05:17;2.33;;;2.23;;
4290;SDS011;2159;50.906;7.152;2023-02-28T08:07:49;2.30;;;2.20;;
4290;SDS011;2159;50.906;7.152;2023-02-28T08:10:17;2.20;;;2.10;;
4290;SDS011;2159;50.906;7.152;2023-02-28T08:12:44;2.63;;;2.53;;
4290;SDS011;2159;50.906;7.152;2023-02-28T08:15:12;2.83;;;2.40;;
4290;SDS011;2159;50.906;7.152;2023-02-28T08:17:39;2.50;;;2.40;;
4290;SDS011;2159;50.906;7.152;2023-02-28T08:20:07;2.23;;;2.13;;
4290;SDS011;2159;50.906;7.152;2023-02-28T08:22:36;2.00;;;1.90;;
4290;SDS011;2159;50.906;7.152;2023-02-28T08:25:05;2.13;;;2.03;;
4290;SDS011;2159;50.906;7.152;2023-02-28T08:27:33;2.23;;;2.03;;
4290;SDS011;2159;50.906;7.152;2023-02-28T08:30:01;1.70;;;1.70;;
4290;SDS011;2159;50.906;7.152;2023-02-28T08:32:29;1.90;;;1.80;;
4290;SDS011;2159;50.906;7.152;2023-02-28T08:34:56;1.93;;;1.83;;
4290;SDS011;2159;50.906;7.152;2023-02-28T08:37:24;1.97;;;1.83;;
4290;SDS011;2159;50.906;7.152;2023-02-28T08:39:51;1.63;;;1.60;;
4290;SDS011;2159;50.906;7.152;2023-02-28T08:42:23;1.70;;;1.60;;
4290;SDS011;2159;50.906;7.152;2023-02-28T08:44:50;1.60;;;1.60;;
4290;SDS011;2159;50.906;7.152;2023-02-28T08:47:18;2.07;;;1.97;;
4290;SDS011;2159;50.906;7.152;2023-02-28T08:49:45;1.50;;;1.50;;
4290;SDS011;2159;50.906;7.152;2023-02-28T08:52:13;1.80;;;1.80;;
4290;SDS011;2159;50.906;7.152;2023-02-28T08:54:40;1.50;;;1.50;;
4290;SDS011;2159;50.906;7.152;2023-02-28T08:57:08;1.70;;;1.60;;
4290;SDS011;2159;50.906;7.152;2023-02-28T08:59:36;1.53;;;1.50;;
4290;SDS011;2159;50.906;7.152;2023-02-28T09:02:04;3.63;;;1.83;;
4290;SDS011;2159;50.906;7.152;2023-02-28T09:04:33;1.43;;;1.43;;
4290;SDS011;2159;50.906;7.152;2023-02-28T09:07:00;1.60;;;1.50;;
4290;SDS011;2159;50.906;7.152;2023-02-28T09:09:27;2.10;;;1.90;;
4290;SDS011;2159;50.906;7.152;2023-02-28T09:11:55;1.60;;;1.50;;
4290;SDS011;2159;50.906;7.152;2023-02-28T09:14:23;1.43;;;1.40;;
4290;SDS011;2159;50.906;7.152;2023-02-28T09:16:52;1.87;;;1.70;;
4290;SDS011;2159;50.906;7.152;2023-02-28T09:19:19;1.50;;;1.40;;
4290;SDS011;2159;50.906;7.152;2023-02-28T09:21:48;1.57;;;1.47;;
4290;SDS011;2159;50.906;7.152;2023-02-28T09:24:15;3.57;;;1.60;;
4290;SDS011;2159;50.906;7.152;2023-02-28T09:26:43;1.50;;;1.40;;
4290;SDS011;2159;50.906;7.152;2023-02-28T09:29:29;1.60;;;1.50;;
4290;SDS011;2159;50.906;7.152;2023-02-28T09:31:58;1.80;;;1.70;;
4290;SDS011;2159;50.906;7.152;2023-02-28T09:34:26;1.40;;;1.40;;
4290;SDS011;2159;50.906;7.152;2023-02-28T09:36:53;1.80;;;1.70;;
4290;SDS011;2159;50.906;7.152;2023-02-28T09:39:21;1.40;;;1.30;;
4290;SDS011;2159;50.906;7.152;2023-02-28T09:41:50;2.90;;;1.70;;
4290;SDS011;2159;50.906;7.152;2023-02-28T09:44:20;1.60;;;1.50;;
4290;SDS011;2159;50.906;7.152;2023-02-28T09:46:50;1.83;;;1.73;;
4290;SDS011;2159;50.906;7.152;2023-02-28T09:49:22;1.60;;;1.50;;
4290;SDS011;2159;50.906;7.152;2023-02-28T09:51:50;1.50;;;1.50;;
4290;SDS011;2159;50.906;7.152;2023-02-28T09:54:19;4.70;;;1.97;;
4290;SDS011;2159;50.906;7.152;2023-02-28T09:56:49;1.50;;;1.40;;
4290;SDS011;2159;50.906;7.152;2023-02-28T09:59:23;1.57;;;1.57;;
4290;SDS011;2159;50.906;7.152;2023-02-28T10:01:54;1.50;;;1.50;;
4290;SDS011;2159;50.906;7.152;2023-02-28T10:04:33;1.60;;;1.50;;
4290;SDS011;2159;50.906;7.152;2023-02-28T10:07:02;1.40;;;1.40;;
4290;SDS011;2159;50.906;7.152;2023-02-28T10:09:33;1.53;;;1.53;;
4290;SDS011;2159;50.906;7.152;2023-02-28T10:12:04;1.73;;;1.63;;
4290;SDS011;2159;50.906;7.152;2023-02-28T10:14:32;2.03;;;1.80;;
4290;SDS011;2159;50.906;7.152;2023-02-28T10:17:01;2.73;;;1.73;;
4290;SDS011;2159;50.906;7.152;2023-02-28T10:19:34;1.70;;;1.60;;
4290;SDS011;2159;50.906;7.152;2023-02-28T10:22:03;1.53;;;1.50;;
4290;SDS011;2159;50.906;7.152;2023-02-28T10:24:32;1.77;;;1.77;;
4290;SDS011;2159;50.906;7.152;2023-02-28T10:27:00;1.70;;;1.60;;
4290;SDS011;2159;50.906;7.152;2023-02-28T10:29:29;1.50;;;1.50;;
4290;SDS011;2159;50.906;7.152;2023-02-28T10:31:59;1.77;;;1.67;;
4290;SDS011;2159;50.906;7.152;2023-02-28T10:34:27;2.10;;;1.70;;
4290;SDS011;2159;50.906;7.152;2023-02-28T10:36:56;1.70;;;1.70;;
4290;SDS011;2159;50.906;7.152;2023-02-28T10:39:34;1.80;;;1.67;;
4290;SDS011;2159;50.906;7.152;2023-02-28T10:42:01;1.83;;;1.73;;
4290;SDS011;2159;50.906;7.152;2023-02-28T10:44:29;1.87;;;1.77;;
4290;SDS011;2159;50.906;7.152;2023-02-28T10:46:56;1.93;;;1.83;;
4290;SDS011;2159;50.906;7.152;2023-02-28T10:49:24;1.73;;;1.63;;
4290;SDS011;2159;50.906;7.152;2023-02-28T10:51:53;1.90;;;1.80;;
4290;SDS011;2159;50.906;7.152;2023-02-28T10:54:24;1.77;;;1.67;;
4290;SDS011;2159;50.906;7.152;2023-02-28T10:57:05;1.90;;;1.80;;
4290;SDS011;2159;50.906;7.152;2023-02-28T10:59:33;2.10;;;1.53;;
4290;SDS011;2159;50.906;7.152;2023-02-28T11:02:00;1.60;;;1.60;;
4290;SDS011;2159;50.906;7.152;2023-02-28T11:04:32;1.63;;;1.63;;
4290;SDS011;2159;50.906;7.152;2023-02-28T11:07:03;2.10;;;1.90;;
4290;SDS011;2159;50.906;7.152;2023-02-28T11:09:32;3.23;;;1.53;;
4290;SDS011;2159;50.906;7.152;2023-02-28T11:12:01;2.83;;;1.70;;
4290;SDS011;2159;50.906;7.152;2023-02-28T11:14:30;1.93;;;1.83;;
4290;SDS011;2159;50.906;7.152;2023-02-28T11:16:59;2.00;;;1.73;;
4290;SDS011;2159;50.906;7.152;2023-02-28T11:19:28;2.00;;;1.90;;
4290;SDS011;2159;50.906;7.152;2023-02-28T11:21:57;1.90;;;1.80;;
4290;SDS011;2159;50.906;7.152;2023-02-28T11:24:26;2.03;;;1.80;;
4290;SDS011;2159;50.906;7.152;2023-02-28T11:26:55;2.20;;;1.80;;
4290;SDS011;2159;50.906;7.152;2023-02-28T11:29:24;2.23;;;2.13;;
4290;SDS011;2159;50.906;7.152;2023-02-28T11:32:05;2.00;;;1.90;;
4290;SDS011;2159;50.906;7.152;2023-02-28T11:34:37;1.80;;;1.70;;
4290;SDS011;2159;50.906;7.152;2023-02-28T11:37:08;2.90;;;1.67;;
4290;SDS011;2159;50.906;7.152;2023-02-28T11:39:36;2.13;;;2.00;;
4290;SDS011;2159;50.906;7.152;2023-02-28T11:42:14;2.33;;;2.20;;
4290;SDS011;2159;50.906;7.152;2023-02-28T11:44:54;1.97;;;1.87;;
4290;SDS011;2159;50.906;7.152;2023-02-28T11:47:26;2.07;;;1.97;;
4290;SDS011;2159;50.906;7.152;2023-02-28T11:50:01;2.00;;;1.90;;
4290;SDS011;2159;50.906;7.152;2023-02-28T11:52:34;2.17;;;2.07;;
4290;SDS011;2159;50.906;7.152;2023-02-28T11:55:11;2.60;;;2.40;;
4290;SDS011;2159;50.906;7.152;2023-02-28T11:57:48;2.00;;;1.90;;
4290;SDS011;2159;50.906;7.152;2023-02-28T12:00:20;2.10;;;2.00;;
4290;SDS011;2159;50.906;7.152;2023-02-28T12:02:55;2.40;;;2.20;;
4290;SDS011;2159;50.906;7.152;2023-02-28T12:05:28;2.43;;;2.33;;
4290;SDS011;2159;50.906;7.152;2023-02-28T12:08:00;2.10;;;2.00;;
4290;SDS011;2159;50.906;7.152;2023-02-28T12:10:29;2.00;;;1.90;;
4290;SDS011;2159;50.906;7.152;2023-02-28T12:13:05;2.23;;;2.13;;
4290;SDS011;2159;50.906;7.152;2023-02-28T12:18:24;2.27;;;2.17;;
4290;SDS011;2159;50.906;7.152;2023-02-28T12:20:54;2.40;;;2.30;;
4290;SDS011;2159;50.906;7.152;2023-02-28T12:23:27;2.30;;;2.20;;
4290;SDS011;2159;50.906;7.152;2023-02-28T12:26:02;2.33;;;2.23;;
4290;SDS011;2159;50.906;7.152;2023-02-28T12:28:37;2.00;;;1.90;;
4290;SDS011;2159;50.906;7.152;2023-02-28T12:31:09;2.27;;;2.13;;
4290;SDS011;2159;50.906;7.152;2023-02-28T12:33:40;2.17;;;2.10;;
4290;SDS011;2159;50.906;7.152;2023-02-28T12:36:09;2.30;;;2.20;;
4290;SDS011;2159;50.906;7.152;2023-02-28T12:38:39;2.67;;;2.50;;
4290;SDS011;2159;50.906;7.152;2023-02-28T12:41:10;2.63;;;2.43;;
4290;SDS011;2159;50.906;7.152;2023-02-28T12:43:42;7.40;;;2.80;;
4290;SDS011;2159;50.906;7.152;2023-02-28T12:46:12;2.40;;;2.30;;
4290;SDS011;2159;50.906;7.152;2023-02-28T12:48:42;3.70;;;2.50;;
4290;SDS011;2159;50.906;7.152;2023-02-28T12:51:10;3.00;;;2.70;;
4290;SDS011;2159;50.906;7.152;2023-02-28T12:53:42;2.50;;;2.40;;
4290;SDS011;2159;50.906;7.152;2023-02-28T12:56:15;2.63;;;2.53;;
4290;SDS011;2159;50.906;7.152;2023-02-28T12:58:47;6.03;;;2.43;;
4290;SDS011;2159;50.906;7.152;2023-02-28T13:01:25;3.10;;;2.30;;
4290;SDS011;2159;50.906;7.152;2023-02-28T13:04:02;2.40;;;2.30;;
4290;SDS011;2159;50.906;7.152;2023-02-28T13:06:40;2.93;;;2.77;;
4290;SDS011;2159;50.906;7.152;2023-02-28T13:09:10;2.30;;;2.20;;
4290;SDS011;2159;50.906;7.152;2023-02-28T13:11:39;2.50;;;2.40;;
4290;SDS011;2159;50.906;7.152;2023-02-28T13:14:16;2.30;;;2.20;;
4290;SDS011;2159;50.906;7.152;2023-02-28T13:16:50;2.70;;;2.50;;
4290;SDS011;2159;50.906;7.152;2023-02-28T13:19:18;2.70;;;2.60;;
4290;SDS011;2159;50.906;7.152;2023-02-28T13:21:47;2.87;;;2.60;;
4290;SDS011;2159;50.906;7.152;2023-02-28T13:27:10;2.87;;;2.67;;
4290;SDS011;2159;50.906;7.152;2023-02-28T13:29:40;2.50;;;2.30;;
4290;SDS011;2159;50.906;7.152;2023-02-28T13:32:31;2.20;;;2.10;;
4290;SDS011;2159;50.906;7.152;2023-02-28T13:35:12;3.10;;;2.90;;
4290;SDS011;2159;50.906;7.152;2023-02-28T13:37:44;2.73;;;2.53;;
4290;SDS011;2159;50.906;7.152;2023-02-28T13:40:30;3.00;;;2.73;;
4290;SDS011;2159;50.906;7.152;2023-02-28T13:43:03;2.80;;;2.70;;
4290;SDS011;2159;50.906;7.152;2023-02-28T13:45:36;2.80;;;2.60;;
4290;SDS011;2159;50.906;7.152;2023-02-28T13:48:15;2.90;;;2.70;;
4290;SDS011;2159;50.906;7.152;2023-02-28T13:50:43;2.97;;;2.67;;
4290;SDS011;2159;50.906;7.152;2023-02-28T13:55:57;2.60;;;2.40;;
4290;SDS011;2159;50.906;7.152;2023-02-28T13:58:31;3.00;;;2.80;;
4290;SDS011;2159;50.906;7.152;2023-02-28T14:01:14;3.20;;;2.97;;
4290;SDS011;2159;50.906;7.152;2023-02-28T14:03:46;3.37;;;3.17;;
4290;SDS011;2159;50.906;7.152;2023-02-28T14:06:22;3.00;;;2.80;;
4290;SDS011;2159;50.906;7.152;2023-02-28T14:08:53;3.17;;;2.87;;
4290;SDS011;2159;50.906;7.152;2023-02-28T14:11:26;3.10;;;2.90;;
4290;SDS011;2159;50.906;7.152;2023-02-28T14:13:54;3.10;;;2.90;;
4290;SDS011;2159;50.906;7.152;2023-02-28T14:16:24;2.80;;;2.70;;
4290;SDS011;2159;50.906;7.152;2023-02-28T14:18:55;3.77;;;2.73;;
4290;SDS011;2159;50.906;7.152;2023-02-28T14:21:24;3.30;;;3.10;;
4290;SDS011;2159;50.906;7.152;2023-02-28T14:29:36;3.23;;;3.00;;
4290;SDS011;2159;50.906;7.152;2023-02-28T14:32:10;3.40;;;2.90;;
4290;SDS011;2159;50.906;7.152;2023-02-28T14:34:42;3.10;;;2.93;;
4290;SDS011;2159;50.906;7.152;2023-02-28T14:37:13;3.10;;;2.90;;
4290;SDS011;2159;50.906;7.152;2023-02-28T14:39:41;3.13;;;2.93;;
4290;SDS011;2159;50.906;7.152;2023-02-28T14:44:53;4.00;;;3.07;;
4290;SDS011;2159;50.906;7.152;2023-02-28T14:47:22;3.07;;;2.70;;
4290;SDS011;2159;50.906;7.152;2023-02-28T14:49:50;3.40;;;3.20;;
4290;SDS011;2159;50.906;7.152;2023-02-28T14:52:19;3.77;;;3.33;;
4290;SDS011;2159;50.906;7.152;2023-02-28T14:54:47;3.27;;;3.07;;
4290;SDS011;2159;50.906;7.152;2023-02-28T14:57:22;3.13;;;2.83;;
4290;SDS011;2159;50.906;7.152;2023-02-28T14:59:56;3.40;;;3.20;;
4290;SDS011;2159;50.906;7.152;2023-02-28T15:02:26;3.00;;;2.80;;
4290;SDS011;2159;50.906;7.152;2023-02-28T15:04:54;3.23;;;3.00;;
4290;SDS011;2159;50.906;7.152;2023-02-28T15:07:23;3.20;;;2.90;;
4290;SDS011;2159;50.906;7.152;2023-02-28T15:10:11;3.00;;;2.80;;
4290;SDS011;2159;50.906;7.152;2023-02-28T15:12:39;4.07;;;2.80;;
4290;SDS011;2159;50.906;7.152;2023-02-28T15:15:13;3.00;;;2.80;;
4290;SDS011;2159;50.906;7.152;2023-02-28T15:17:42;3.33;;;3.10;;
4290;SDS011;2159;50.906;7.152;2023-02-28T15:20:12;3.40;;;3.10;;
4290;SDS011;2159;50.906;7.152;2023-02-28T15:22:40;5.30;;;3.63;;
4290;SDS011;2159;50.906;7.152;2023-02-28T15:25:09;4.37;;;3.27;;
4290;SDS011;2159;50.906;7.152;2023-02-28T15:27:41;3.60;;;2.87;;
4290;SDS011;2159;50.906;7.152;2023-02-28T15:30:15;3.07;;;2.77;;
4290;SDS011;2159;50.906;7.152;2023-02-28T15:32:45;2.70;;;2.50;;
4290;SDS011;2159;50.906;7.152;2023-02-28T15:35:29;5.30;;;2.60;;
4290;SDS011;2159;50.906;7.152;2023-02-28T15:37:58;4.13;;;3.10;;
4290;SDS011;2159;50.906;7.152;2023-02-28T15:40:28;2.80;;;2.70;;
4290;SDS011;2159;50.906;7.152;2023-02-28T15:43:02;3.07;;;2.87;;
4290;SDS011;2159;50.906;7.152;2023-02-28T15:45:35;4.67;;;2.77;;
4290;SDS011;2159;50.906;7.152;2023-02-28T15:48:09;3.30;;;3.00;;
4290;SDS011;2159;50.906;7.152;2023-02-28T15:50:40;2.80;;;2.60;;
4290;SDS011;2159;50.906;7.152;2023-02-28T15:53:12;3.00;;;2.63;;
4290;SDS011;2159;50.906;7.152;2023-02-28T15:55:39;3.20;;;2.90;;